sensor_id;sensor_type;location;lat;lon;timestamp;pressure;altitude;pressure_sealevel;temperature;humidity
60258;BME280;46115;44.484;11.314;2023-07-09T00:03:58;100717.03;;;23.50;71.82
60258;BME280;46115;44.484;11.314;2023-07-09T00:08:01;100725.47;;;23.82;70.90
60258;BME280;46115;44.484;11.314;2023-07-09T00:12:06;100723.88;;;24.07;69.76
60258;BME280;46115;44.484;11.314;2023-07-09T00:16:14;100725.50;;;23.64;71.45
60258;BME280;46115;44.484;11.314;2023-07-09T00:20:18;100728.66;;;23.50;72.20
60258;BME280;46115;44.484;11.314;2023-07-09T00:24:21;100697.22;;;23.41;71.86
60258;BME280;46115;44.484;11.314;2023-07-09T00:28:23;100719.00;;;23.30;72.81
60258;BME280;46115;44.484;11.314;2023-07-09T00:32:27;100714.56;;;23.39;72.81
60258;BME280;46115;44.484;11.314;2023-07-09T00:36:30;100716.78;;;23.25;73.34
60258;BME280;46115;44.484;11.314;2023-07-09T00:40:33;100714.56;;;23.11;73.95
60258;BME280;46115;44.484;11.314;2023-07-09T00:44:36;100717.66;;;23.16;73.38
60258;BME280;46115;44.484;11.314;2023-07-09T00:48:40;100711.41;;;23.43;72.46
60258;BME280;46115;44.484;11.314;2023-07-09T00:52:50;100715.88;;;23.52;71.74
60258;BME280;46115;44.484;11.314;2023-07-09T00:56:55;100704.84;;;23.46;71.99
60258;BME280;46115;44.484;11.314;2023-07-09T01:01:00;100709.53;;;23.26;72.90
60258;BME280;46115;44.484;11.314;2023-07-09T01:05:07;100713.09;;;23.17;73.26
60258;BME280;46115;44.484;11.314;2023-07-09T01:09:10;100715.97;;;23.15;73.15
60258;BME280;46115;44.484;11.314;2023-07-09T01:13:13;100719.34;;;22.80;75.05
60258;BME280;46115;44.484;11.314;2023-07-09T01:17:16;100721.78;;;22.73;75.34
60258;BME280;46115;44.484;11.314;2023-07-09T01:21:20;100715.94;;;22.78;75.22
60258;BME280;46115;44.484;11.314;2023-07-09T01:25:23;100719.53;;;22.69;75.54
60258;BME280;46115;44.484;11.314;2023-07-09T01:29:30;100697.88;;;22.51;75.86
60258;BME280;46115;44.484;11.314;2023-07-09T01:33:32;100718.22;;;22.83;74.75
60258;BME280;46115;44.484;11.314;2023-07-09T01:37:37;100700.78;;;22.77;75.18
60258;BME280;46115;44.484;11.314;2023-07-09T01:41:40;100713.31;;;22.68;75.53
60258;BME280;46115;44.484;11.314;2023-07-09T01:45:42;100695.13;;;22.70;75.12
60258;BME280;46115;44.484;11.314;2023-07-09T01:49:45;100700.72;;;22.50;75.97
60258;BME280;46115;44.484;11.314;2023-07-09T01:53:49;100706.13;;;22.50;76.53
60258;BME280;46115;44.484;11.314;2023-07-09T01:57:51;100700.50;;;22.33;77.21
60258;BME280;46115;44.484;11.314;2023-07-09T02:01:55;100701.22;;;22.16;77.98
60258;BME280;46115;44.484;11.314;2023-07-09T02:05:58;100706.16;;;22.30;77.48
60258;BME280;46115;44.484;11.314;2023-07-09T02:10:05;100698.91;;;22.40;77.00
60258;BME280;46115;44.484;11.314;2023-07-09T02:14:08;100707.56;;;22.34;77.04
60258;BME280;46115;44.484;11.314;2023-07-09T02:18:11;100711.97;;;22.35;77.15
60258;BME280;46115;44.484;11.314;2023-07-09T02:22:13;100716.06;;;22.39;76.70
60258;BME280;46115;44.484;11.314;2023-07-09T02:26:17;100715.25;;;22.20;77.44
60258;BME280;46115;44.484;11.314;2023-07-09T02:30:20;100728.44;;;22.23;77.31
60258;BME280;46115;44.484;11.314;2023-07-09T02:34:22;100717.09;;;22.19;77.24
60258;BME280;46115;44.484;11.314;2023-07-09T02:38:27;100725.03;;;22.21;77.69
60258;BME280;46115;44.484;11.314;2023-07-09T02:42:30;100730.78;;;22.45;76.65
60258;BME280;46115;44.484;11.314;2023-07-09T02:46:34;100738.63;;;22.19;77.56
60258;BME280;46115;44.484;11.314;2023-07-09T02:50:36;100733.69;;;22.05;78.07
60258;BME280;46115;44.484;11.314;2023-07-09T02:54:39;100737.38;;;22.04;78.06
60258;BME280;46115;44.484;11.314;2023-07-09T02:58:43;100726.75;;;22.22;76.62
60258;BME280;46115;44.484;11.314;2023-07-09T03:02:45;100743.31;;;22.07;77.88
60258;BME280;46115;44.484;11.314;2023-07-09T03:06:48;100748.13;;;22.14;77.78
60258;BME280;46115;44.484;11.314;2023-07-09T03:10:50;100758.34;;;22.10;77.66
60258;BME280;46115;44.484;11.314;2023-07-09T03:14:54;100758.31;;;22.20;77.43
60258;BME280;46115;44.484;11.314;2023-07-09T03:18:56;100757.47;;;22.09;77.56
60258;BME280;46115;44.484;11.314;2023-07-09T03:22:59;100759.31;;;22.19;77.15
60258;BME280;46115;44.484;11.314;2023-07-09T03:27:02;100764.28;;;22.14;76.80
60258;BME280;46115;44.484;11.314;2023-07-09T03:31:06;100759.03;;;21.93;77.69
60258;BME280;46115;44.484;11.314;2023-07-09T03:35:08;100758.31;;;22.00;77.46
60258;BME280;46115;44.484;11.314;2023-07-09T03:39:11;100759.72;;;21.95;77.74
60258;BME280;46115;44.484;11.314;2023-07-09T03:43:13;100756.63;;;22.09;77.04
60258;BME280;46115;44.484;11.314;2023-07-09T03:47:17;100758.31;;;21.91;78.07
60258;BME280;46115;44.484;11.314;2023-07-09T03:51:20;100776.44;;;21.98;77.76
60258;BME280;46115;44.484;11.314;2023-07-09T03:55:22;100774.44;;;21.71;78.89
60258;BME280;46115;44.484;11.314;2023-07-09T03:59:27;100767.34;;;21.61;79.59
60258;BME280;46115;44.484;11.314;2023-07-09T04:03:31;100757.56;;;21.79;78.67
60258;BME280;46115;44.484;11.314;2023-07-09T04:07:33;100749.38;;;21.71;78.83
60258;BME280;46115;44.484;11.314;2023-07-09T04:11:36;100764.66;;;21.70;78.96
60258;BME280;46115;44.484;11.314;2023-07-09T04:15:38;100763.84;;;21.89;78.28
60258;BME280;46115;44.484;11.314;2023-07-09T04:19:42;100768.53;;;22.26;76.38
60258;BME280;46115;44.484;11.314;2023-07-09T04:23:44;100765.81;;;22.45;75.67
60258;BME280;46115;44.484;11.314;2023-07-09T04:27:47;100762.16;;;22.27;76.24
60258;BME280;46115;44.484;11.314;2023-07-09T04:31:50;100772.19;;;22.44;75.64
60258;BME280;46115;44.484;11.314;2023-07-09T04:35:55;100771.25;;;22.26;76.39
60258;BME280;46115;44.484;11.314;2023-07-09T04:39:57;100771.31;;;22.63;75.16
60258;BME280;46115;44.484;11.314;2023-07-09T04:44:00;100778.56;;;22.53;75.47
60258;BME280;46115;44.484;11.314;2023-07-09T04:48:03;100775.00;;;22.52;75.49
60258;BME280;46115;44.484;11.314;2023-07-09T04:52:07;100780.50;;;22.80;74.99
60258;BME280;46115;44.484;11.314;2023-07-09T04:56:12;100786.47;;;23.20;73.35
60258;BME280;46115;44.484;11.314;2023-07-09T05:00:15;100779.13;;;23.13;73.44
60258;BME280;46115;44.484;11.314;2023-07-09T05:04:17;100781.53;;;23.16;73.22
60258;BME280;46115;44.484;11.314;2023-07-09T05:08:21;100783.53;;;23.14;73.40
60258;BME280;46115;44.484;11.314;2023-07-09T05:12:26;100789.56;;;23.62;71.68
60258;BME280;46115;44.484;11.314;2023-07-09T05:16:29;100803.59;;;23.66;71.67
60258;BME280;46115;44.484;11.314;2023-07-09T05:20:31;100794.47;;;23.94;70.65
60258;BME280;46115;44.484;11.314;2023-07-09T05:24:35;100795.91;;;23.89;70.90
60258;BME280;46115;44.484;11.314;2023-07-09T05:28:37;100800.63;;;24.22;69.77
60258;BME280;46115;44.484;11.314;2023-07-09T05:32:40;100799.81;;;24.40;69.08
60258;BME280;46115;44.484;11.314;2023-07-09T05:36:42;100796.13;;;24.67;67.79
60258;BME280;46115;44.484;11.314;2023-07-09T05:40:47;100811.22;;;24.77;67.10
60258;BME280;46115;44.484;11.314;2023-07-09T05:44:50;100810.09;;;25.06;66.97
60258;BME280;46115;44.484;11.314;2023-07-09T05:48:53;100809.31;;;25.22;66.71
60258;BME280;46115;44.484;11.314;2023-07-09T05:52:55;100818.09;;;25.58;65.06
60258;BME280;46115;44.484;11.314;2023-07-09T05:56:59;100818.56;;;25.79;64.42
60258;BME280;46115;44.484;11.314;2023-07-09T06:01:01;100815.31;;;25.67;65.11
60258;BME280;46115;44.484;11.314;2023-07-09T06:05:04;100819.47;;;26.12;63.97
60258;BME280;46115;44.484;11.314;2023-07-09T06:09:12;100827.66;;;26.61;62.90
60258;BME280;46115;44.484;11.314;2023-07-09T06:13:17;100830.34;;;26.61;62.71
60258;BME280;46115;44.484;11.314;2023-07-09T06:17:20;100809.34;;;26.55;61.76
60258;BME280;46115;44.484;11.314;2023-07-09T06:21:23;100825.06;;;26.92;61.18
60258;BME280;46115;44.484;11.314;2023-07-09T06:25:25;100827.81;;;27.08;59.77
60258;BME280;46115;44.484;11.314;2023-07-09T06:29:29;100836.25;;;27.13;59.94
60258;BME280;46115;44.484;11.314;2023-07-09T06:33:31;100832.63;;;27.29;58.68
60258;BME280;46115;44.484;11.314;2023-07-09T06:37:33;100840.00;;;27.59;58.17
60258;BME280;46115;44.484;11.314;2023-07-09T06:41:36;100831.25;;;28.11;57.74
60258;BME280;46115;44.484;11.314;2023-07-09T06:45:49;100835.44;;;27.91;55.76
60258;BME280;46115;44.484;11.314;2023-07-09T06:49:52;100839.25;;;28.05;57.26
60258;BME280;46115;44.484;11.314;2023-07-09T06:53:54;100839.84;;;28.23;56.76
60258;BME280;46115;44.484;11.314;2023-07-09T06:57:57;100838.03;;;28.61;55.79
60258;BME280;46115;44.484;11.314;2023-07-09T07:02:00;100833.81;;;29.11;54.41
60258;BME280;46115;44.484;11.314;2023-07-09T07:06:03;100833.81;;;29.70;52.83
60258;BME280;46115;44.484;11.314;2023-07-09T07:10:08;100835.78;;;29.76;51.44
60258;BME280;46115;44.484;11.314;2023-07-09T07:14:10;100830.56;;;29.45;52.12
60258;BME280;46115;44.484;11.314;2023-07-09T07:18:14;100820.72;;;29.80;51.68
60258;BME280;46115;44.484;11.314;2023-07-09T07:22:16;100828.69;;;30.54;49.79
60258;BME280;46115;44.484;11.314;2023-07-09T07:26:19;100834.59;;;31.48;47.60
60258;BME280;46115;44.484;11.314;2023-07-09T07:30:21;100833.34;;;31.91;48.12
60258;BME280;46115;44.484;11.314;2023-07-09T07:34:25;100836.56;;;32.08;45.21
60258;BME280;46115;44.484;11.314;2023-07-09T07:38:27;100827.78;;;32.59;45.83
60258;BME280;46115;44.484;11.314;2023-07-09T07:42:30;100846.75;;;32.74;42.56
60258;BME280;46115;44.484;11.314;2023-07-09T07:46:33;100852.00;;;33.35;42.29
60258;BME280;46115;44.484;11.314;2023-07-09T07:50:37;100841.22;;;33.27;41.62
60258;BME280;46115;44.484;11.314;2023-07-09T07:54:40;100843.53;;;33.49;40.98
60258;BME280;46115;44.484;11.314;2023-07-09T07:58:43;100840.44;;;32.67;41.50
60258;BME280;46115;44.484;11.314;2023-07-09T08:02:45;100844.06;;;33.71;41.16
60258;BME280;46115;44.484;11.314;2023-07-09T08:06:49;100838.38;;;34.18;40.68
60258;BME280;46115;44.484;11.314;2023-07-09T08:10:51;100830.03;;;34.62;39.26
60258;BME280;46115;44.484;11.314;2023-07-09T08:15:02;100833.34;;;34.71;40.50
60258;BME280;46115;44.484;11.314;2023-07-09T08:19:04;100828.44;;;34.17;40.11
60258;BME280;46115;44.484;11.314;2023-07-09T08:23:08;100838.59;;;33.71;41.19
60258;BME280;46115;44.484;11.314;2023-07-09T08:27:10;100837.06;;;33.89;41.52
60258;BME280;46115;44.484;11.314;2023-07-09T08:31:13;100839.38;;;33.85;41.73
60258;BME280;46115;44.484;11.314;2023-07-09T08:35:15;100832.84;;;34.56;41.66
60258;BME280;46115;44.484;11.314;2023-07-09T08:39:19;100836.84;;;34.85;39.61
60258;BME280;46115;44.484;11.314;2023-07-09T08:43:28;100844.00;;;35.11;39.91
60258;BME280;46115;44.484;11.314;2023-07-09T08:47:44;100844.25;;;35.64;37.75
60258;BME280;46115;44.484;11.314;2023-07-09T08:51:50;100839.44;;;34.98;39.08
60258;BME280;46115;44.484;11.314;2023-07-09T08:55:55;100834.59;;;35.91;37.46
60258;BME280;46115;44.484;11.314;2023-07-09T09:00:02;100847.69;;;36.38;36.08
60258;BME280;46115;44.484;11.314;2023-07-09T09:04:15;100836.22;;;35.81;36.82
60258;BME280;46115;44.484;11.314;2023-07-09T09:08:31;100828.50;;;35.89;36.67
60258;BME280;46115;44.484;11.314;2023-07-09T09:12:38;100829.66;;;35.09;37.54
60258;BME280;46115;44.484;11.314;2023-07-09T09:16:44;100823.31;;;35.26;36.46
60258;BME280;46115;44.484;11.314;2023-07-09T09:20:53;100822.31;;;34.78;37.49
60258;BME280;46115;44.484;11.314;2023-07-09T09:25:02;100834.22;;;35.70;37.76
60258;BME280;46115;44.484;11.314;2023-07-09T09:29:12;100846.59;;;35.79;38.58
60258;BME280;46115;44.484;11.314;2023-07-09T09:33:17;100844.94;;;36.08;36.64
60258;BME280;46115;44.484;11.314;2023-07-09T09:37:28;100857.13;;;36.00;37.63
60258;BME280;46115;44.484;11.314;2023-07-09T09:41:34;100843.72;;;35.74;36.63
60258;BME280;46115;44.484;11.314;2023-07-09T09:45:40;100836.25;;;34.51;36.23
60258;BME280;46115;44.484;11.314;2023-07-09T09:49:43;100848.88;;;35.09;38.34
60258;BME280;46115;44.484;11.314;2023-07-09T09:53:49;100848.13;;;35.38;36.86
60258;BME280;46115;44.484;11.314;2023-07-09T09:57:53;100846.59;;;35.06;36.60
60258;BME280;46115;44.484;11.314;2023-07-09T10:01:58;100840.59;;;34.90;36.39
60258;BME280;46115;44.484;11.314;2023-07-09T10:06:07;100843.03;;;34.98;37.31
60258;BME280;46115;44.484;11.314;2023-07-09T10:10:15;100838.41;;;34.74;38.05
60258;BME280;46115;44.484;11.314;2023-07-09T10:14:37;100835.78;;;34.23;37.52
60258;BME280;46115;44.484;11.314;2023-07-09T10:18:50;100836.94;;;34.47;36.36
60258;BME280;46115;44.484;11.314;2023-07-09T10:23:00;100840.53;;;34.72;35.99
60258;BME280;46115;44.484;11.314;2023-07-09T10:27:09;100839.94;;;33.49;38.19
60258;BME280;46115;44.484;11.314;2023-07-09T10:31:17;100837.44;;;33.28;38.13
60258;BME280;46115;44.484;11.314;2023-07-09T10:35:35;100823.78;;;33.79;36.58
60258;BME280;46115;44.484;11.314;2023-07-09T10:39:43;100824.88;;;34.16;35.82
60258;BME280;46115;44.484;11.314;2023-07-09T10:43:52;100816.47;;;34.11;35.85
60258;BME280;46115;44.484;11.314;2023-07-09T10:48:02;100812.03;;;34.10;35.25
60258;BME280;46115;44.484;11.314;2023-07-09T10:52:13;100819.28;;;34.29;36.12
60258;BME280;46115;44.484;11.314;2023-07-09T10:56:21;100819.09;;;34.24;37.19
60258;BME280;46115;44.484;11.314;2023-07-09T11:00:34;100803.84;;;34.03;36.09
60258;BME280;46115;44.484;11.314;2023-07-09T11:04:40;100811.78;;;34.18;38.10
60258;BME280;46115;44.484;11.314;2023-07-09T11:08:49;100808.56;;;34.21;36.66
60258;BME280;46115;44.484;11.314;2023-07-09T11:12:58;100814.59;;;34.05;36.95
60258;BME280;46115;44.484;11.314;2023-07-09T11:17:04;100810.91;;;33.86;38.75
60258;BME280;46115;44.484;11.314;2023-07-09T11:21:14;100807.91;;;33.94;38.97
60258;BME280;46115;44.484;11.314;2023-07-09T11:25:30;100805.03;;;33.76;38.53
60258;BME280;46115;44.484;11.314;2023-07-09T11:29:45;100804.31;;;33.49;37.73
60258;BME280;46115;44.484;11.314;2023-07-09T11:33:49;100795.84;;;33.57;37.33
60258;BME280;46115;44.484;11.314;2023-07-09T11:38:07;100762.84;;;33.26;38.96
60258;BME280;46115;44.484;11.314;2023-07-09T11:42:30;100784.28;;;33.48;39.83
60258;BME280;46115;44.484;11.314;2023-07-09T11:46:35;100789.63;;;33.17;38.21
60258;BME280;46115;44.484;11.314;2023-07-09T11:50:43;100785.00;;;33.17;38.50
60258;BME280;46115;44.484;11.314;2023-07-09T11:54:47;100774.06;;;33.11;36.92
60258;BME280;46115;44.484;11.314;2023-07-09T11:58:52;100783.69;;;33.27;38.10
60258;BME280;46115;44.484;11.314;2023-07-09T12:02:55;100780.13;;;33.19;38.13
60258;BME280;46115;44.484;11.314;2023-07-09T12:06:59;100785.16;;;33.29;37.63
60258;BME280;46115;44.484;11.314;2023-07-09T12:11:02;100775.31;;;33.15;37.33
60258;BME280;46115;44.484;11.314;2023-07-09T12:15:17;100769.22;;;33.13;38.00
60258;BME280;46115;44.484;11.314;2023-07-09T12:19:23;100748.06;;;33.27;39.27
60258;BME280;46115;44.484;11.314;2023-07-09T12:23:27;100762.59;;;33.47;38.29
60258;BME280;46115;44.484;11.314;2023-07-09T12:27:31;100758.66;;;33.16;37.76
60258;BME280;46115;44.484;11.314;2023-07-09T12:31:39;100754.41;;;33.40;37.58
60258;BME280;46115;44.484;11.314;2023-07-09T12:35:42;100753.97;;;33.43;37.58
60258;BME280;46115;44.484;11.314;2023-07-09T12:39:45;100747.81;;;33.48;39.44
60258;BME280;46115;44.484;11.314;2023-07-09T12:43:48;100737.88;;;33.54;40.50
60258;BME280;46115;44.484;11.314;2023-07-09T12:47:52;100723.66;;;33.70;38.48
60258;BME280;46115;44.484;11.314;2023-07-09T12:51:55;100730.56;;;33.79;39.79
60258;BME280;46115;44.484;11.314;2023-07-09T12:55:59;100720.72;;;33.65;38.24
60258;BME280;46115;44.484;11.314;2023-07-09T13:00:14;100719.22;;;33.37;38.24
60258;BME280;46115;44.484;11.314;2023-07-09T13:04:18;100712.53;;;33.58;38.85
60258;BME280;46115;44.484;11.314;2023-07-09T13:08:20;100713.94;;;33.36;37.80
60258;BME280;46115;44.484;11.314;2023-07-09T13:12:29;100709.53;;;33.35;39.45
60258;BME280;46115;44.484;11.314;2023-07-09T13:16:38;100703.97;;;33.48;39.85
60258;BME280;46115;44.484;11.314;2023-07-09T13:20:44;100714.31;;;33.46;39.15
60258;BME280;46115;44.484;11.314;2023-07-09T13:24:48;100712.88;;;33.30;39.68
60258;BME280;46115;44.484;11.314;2023-07-09T13:28:51;100695.22;;;33.33;39.83
60258;BME280;46115;44.484;11.314;2023-07-09T13:32:53;100710.38;;;33.22;38.95
60258;BME280;46115;44.484;11.314;2023-07-09T13:36:57;100700.06;;;33.31;40.24
60258;BME280;46115;44.484;11.314;2023-07-09T13:41:12;100694.69;;;33.49;39.54
60258;BME280;46115;44.484;11.314;2023-07-09T13:45:18;100695.31;;;33.51;40.39
60258;BME280;46115;44.484;11.314;2023-07-09T13:49:23;100680.28;;;33.15;38.78
60258;BME280;46115;44.484;11.314;2023-07-09T13:53:30;100666.09;;;33.38;38.93
60258;BME280;46115;44.484;11.314;2023-07-09T13:57:33;100671.38;;;33.27;39.92
60258;BME280;46115;44.484;11.314;2023-07-09T14:01:37;100672.88;;;33.23;39.70
60258;BME280;46115;44.484;11.314;2023-07-09T14:05:39;100667.56;;;33.28;39.61
60258;BME280;46115;44.484;11.314;2023-07-09T14:09:43;100664.72;;;33.09;39.08
60258;BME280;46115;44.484;11.314;2023-07-09T14:13:46;100666.16;;;33.18;38.78
60258;BME280;46115;44.484;11.314;2023-07-09T14:17:48;100668.88;;;33.18;38.95
60258;BME280;46115;44.484;11.314;2023-07-09T14:21:51;100674.78;;;33.22;39.27
60258;BME280;46115;44.484;11.314;2023-07-09T14:25:55;100664.25;;;33.19;37.91
60258;BME280;46115;44.484;11.314;2023-07-09T14:29:58;100661.28;;;33.34;38.83
60258;BME280;46115;44.484;11.314;2023-07-09T14:34:16;100661.72;;;33.17;38.58
60258;BME280;46115;44.484;11.314;2023-07-09T14:38:21;100662.28;;;33.39;38.59
60258;BME280;46115;44.484;11.314;2023-07-09T14:42:26;100659.56;;;33.26;37.81
60258;BME280;46115;44.484;11.314;2023-07-09T14:46:28;100656.69;;;33.14;36.11
60258;BME280;46115;44.484;11.314;2023-07-09T14:50:31;100654.78;;;33.15;36.26
60258;BME280;46115;44.484;11.314;2023-07-09T14:54:34;100649.91;;;33.24;36.86
60258;BME280;46115;44.484;11.314;2023-07-09T14:58:38;100631.34;;;33.32;36.58
60258;BME280;46115;44.484;11.314;2023-07-09T15:02:42;100644.41;;;33.37;37.23
60258;BME280;46115;44.484;11.314;2023-07-09T15:06:45;100642.63;;;33.49;37.88
60258;BME280;46115;44.484;11.314;2023-07-09T15:10:48;100643.19;;;33.19;35.35
60258;BME280;46115;44.484;11.314;2023-07-09T15:14:53;100634.75;;;33.21;36.89
60258;BME280;46115;44.484;11.314;2023-07-09T15:18:57;100632.84;;;33.22;36.58
60258;BME280;46115;44.484;11.314;2023-07-09T15:23:00;100616.97;;;33.30;36.87
60258;BME280;46115;44.484;11.314;2023-07-09T15:27:03;100617.41;;;33.27;37.83
60258;BME280;46115;44.484;11.314;2023-07-09T15:31:10;100629.19;;;33.41;37.68
60258;BME280;46115;44.484;11.314;2023-07-09T15:35:13;100628.41;;;33.34;37.35
60258;BME280;46115;44.484;11.314;2023-07-09T15:39:16;100622.94;;;33.21;37.24
60258;BME280;46115;44.484;11.314;2023-07-09T15:43:18;100615.88;;;33.44;38.74
60258;BME280;46115;44.484;11.314;2023-07-09T15:47:24;100577.41;;;32.88;38.56
60258;BME280;46115;44.484;11.314;2023-07-09T15:51:28;100605.19;;;32.98;38.00
60258;BME280;46115;44.484;11.314;2023-07-09T15:55:30;100604.44;;;33.16;37.70
60258;BME280;46115;44.484;11.314;2023-07-09T15:59:35;100603.25;;;33.43;38.40
60258;BME280;46115;44.484;11.314;2023-07-09T16:03:49;100594.13;;;33.11;37.80
60258;BME280;46115;44.484;11.314;2023-07-09T16:07:54;100584.88;;;33.12;37.46
60258;BME280;46115;44.484;11.314;2023-07-09T16:11:57;100589.63;;;33.24;38.03
60258;BME280;46115;44.484;11.314;2023-07-09T16:15:59;100586.75;;;33.12;38.16
60258;BME280;46115;44.484;11.314;2023-07-09T16:20:04;100574.94;;;32.80;38.61
60258;BME280;46115;44.484;11.314;2023-07-09T16:24:15;100584.34;;;32.97;38.99
60258;BME280;46115;44.484;11.314;2023-07-09T16:28:19;100579.44;;;33.06;37.80
60258;BME280;46115;44.484;11.314;2023-07-09T16:32:22;100581.38;;;32.92;39.21
60258;BME280;46115;44.484;11.314;2023-07-09T16:36:25;100577.19;;;32.96;38.83
60258;BME280;46115;44.484;11.314;2023-07-09T16:40:30;100578.47;;;32.87;38.25
60258;BME280;46115;44.484;11.314;2023-07-09T16:44:33;100576.50;;;33.01;39.64
60258;BME280;46115;44.484;11.314;2023-07-09T16:48:35;100568.19;;;32.76;38.48
60258;BME280;46115;44.484;11.314;2023-07-09T16:52:39;100584.38;;;32.84;39.52
60258;BME280;46115;44.484;11.314;2023-07-09T16:56:42;100573.38;;;32.97;37.98
60258;BME280;46115;44.484;11.314;2023-07-09T17:00:44;100572.19;;;32.80;39.81
60258;BME280;46115;44.484;11.314;2023-07-09T17:04:47;100572.00;;;32.68;39.93
60258;BME280;46115;44.484;11.314;2023-07-09T17:08:50;100573.94;;;32.54;40.63
60258;BME280;46115;44.484;11.314;2023-07-09T17:12:55;100562.34;;;32.66;42.35
60258;BME280;46115;44.484;11.314;2023-07-09T17:16:58;100570.16;;;32.49;40.69
60258;BME280;46115;44.484;11.314;2023-07-09T17:21:02;100574.56;;;32.56;42.02
60258;BME280;46115;44.484;11.314;2023-07-09T17:25:21;100581.56;;;32.46;40.97
60258;BME280;46115;44.484;11.314;2023-07-09T17:29:24;100568.66;;;32.66;41.85
60258;BME280;46115;44.484;11.314;2023-07-09T17:33:27;100569.44;;;32.73;42.07
60258;BME280;46115;44.484;11.314;2023-07-09T17:37:30;100574.44;;;32.32;44.08
60258;BME280;46115;44.484;11.314;2023-07-09T17:41:34;100576.56;;;32.30;42.78
60258;BME280;46115;44.484;11.314;2023-07-09T17:45:36;100566.91;;;32.27;43.53
60258;BME280;46115;44.484;11.314;2023-07-09T17:49:39;100566.25;;;32.12;43.75
60258;BME280;46115;44.484;11.314;2023-07-09T17:53:41;100572.53;;;32.19;43.88
60258;BME280;46115;44.484;11.314;2023-07-09T17:57:47;100573.19;;;32.08;44.37
60258;BME280;46115;44.484;11.314;2023-07-09T18:01:58;100567.25;;;32.24;44.79
60258;BME280;46115;44.484;11.314;2023-07-09T18:06:03;100572.56;;;32.06;45.50
60258;BME280;46115;44.484;11.314;2023-07-09T18:10:07;100575.06;;;31.48;46.94
60258;BME280;46115;44.484;11.314;2023-07-09T18:14:18;100586.84;;;31.48;48.49
60258;BME280;46115;44.484;11.314;2023-07-09T18:18:22;100591.47;;;31.48;48.35
60258;BME280;46115;44.484;11.314;2023-07-09T18:22:24;100586.22;;;31.33;49.03
60258;BME280;46115;44.484;11.314;2023-07-09T18:26:32;100596.09;;;31.54;46.93
60258;BME280;46115;44.484;11.314;2023-07-09T18:30:36;100598.41;;;31.44;48.81
60258;BME280;46115;44.484;11.314;2023-07-09T18:34:39;100589.88;;;31.06;48.61
60258;BME280;46115;44.484;11.314;2023-07-09T18:38:41;100588.59;;;30.95;50.70
60258;BME280;46115;44.484;11.314;2023-07-09T18:42:44;100590.28;;;30.96;50.35
60258;BME280;46115;44.484;11.314;2023-07-09T18:46:49;100594.47;;;30.92;50.67
60258;BME280;46115;44.484;11.314;2023-07-09T18:50:52;100593.09;;;30.33;53.18
60258;BME280;46115;44.484;11.314;2023-07-09T18:54:56;100592.19;;;30.54;52.83
60258;BME280;46115;44.484;11.314;2023-07-09T18:58:59;100587.31;;;30.15;53.71
60258;BME280;46115;44.484;11.314;2023-07-09T19:03:03;100587.91;;;30.10;54.00
60258;BME280;46115;44.484;11.314;2023-07-09T19:07:09;100592.63;;;30.23;53.06
60258;BME280;46115;44.484;11.314;2023-07-09T19:11:12;100597.97;;;30.38;54.27
60258;BME280;46115;44.484;11.314;2023-07-09T19:15:15;100582.50;;;30.17;55.81
60258;BME280;46115;44.484;11.314;2023-07-09T19:19:20;100595.06;;;30.11;54.08
60258;BME280;46115;44.484;11.314;2023-07-09T19:23:23;100596.72;;;30.13;54.45
60258;BME280;46115;44.484;11.314;2023-07-09T19:27:26;100601.34;;;30.12;55.31
60258;BME280;46115;44.484;11.314;2023-07-09T19:31:28;100612.19;;;29.56;55.29
60258;BME280;46115;44.484;11.314;2023-07-09T19:35:32;100603.88;;;29.07;56.96
60258;BME280;46115;44.484;11.314;2023-07-09T19:39:35;100607.94;;;28.96;57.06
60258;BME280;46115;44.484;11.314;2023-07-09T19:43:39;100612.16;;;28.99;57.41
60258;BME280;46115;44.484;11.314;2023-07-09T19:47:42;100618.28;;;28.71;58.12
60258;BME280;46115;44.484;11.314;2023-07-09T19:51:46;100620.72;;;28.66;57.82
60258;BME280;46115;44.484;11.314;2023-07-09T22:06:09;100703.03;;;27.31;65.18
60258;BME280;46115;44.484;11.314;2023-07-09T22:10:13;100687.75;;;26.91;66.43
60258;BME280;46115;44.484;11.314;2023-07-09T22:14:18;100683.06;;;27.24;65.47
60258;BME280;46115;44.484;11.314;2023-07-09T22:18:21;100698.31;;;26.78;67.77
60258;BME280;46115;44.484;11.314;2023-07-09T22:22:26;100701.41;;;26.58;68.44
60258;BME280;46115;44.484;11.314;2023-07-09T22:26:30;100695.25;;;26.81;67.56
60258;BME280;46115;44.484;11.314;2023-07-09T22:30:33;100688.31;;;26.70;68.31
60258;BME280;46115;44.484;11.314;2023-07-09T22:34:35;100697.03;;;26.49;68.98
60258;BME280;46115;44.484;11.314;2023-07-09T22:38:39;100691.41;;;26.59;68.70
60258;BME280;46115;44.484;11.314;2023-07-09T22:42:41;100690.41;;;26.27;69.54
60258;BME280;46115;44.484;11.314;2023-07-09T22:46:44;100694.78;;;26.61;68.86
60258;BME280;46115;44.484;11.314;2023-07-09T22:50:47;100712.13;;;26.19;70.53
60258;BME280;46115;44.484;11.314;2023-07-09T22:54:51;100711.22;;;26.59;68.70
60258;BME280;46115;44.484;11.314;2023-07-09T22:58:54;100709.25;;;26.45;69.33
60258;BME280;46115;44.484;11.314;2023-07-09T23:02:58;100708.03;;;26.56;68.62
60258;BME280;46115;44.484;11.314;2023-07-09T23:07:00;100699.59;;;26.42;69.41
60258;BME280;46115;44.484;11.314;2023-07-09T23:11:11;100694.81;;;26.28;69.83
60258;BME280;46115;44.484;11.314;2023-07-09T23:15:22;100693.84;;;26.13;70.68